createdAt,value
2017-06-15T00:01:08.095Z,15.10
2017-06-15T00:03:36.207Z,15.00
2017-06-15T00:06:04.339Z,15.00
2017-06-15T00:08:32.471Z,15.00
2017-06-15T00:11:00.578Z,14.90
2017-06-15T00:13:29.626Z,14.80
2017-06-15T00:15:57.770Z,14.80
2017-06-15T00:18:25.876Z,14.80
2017-06-15T00:20:54.005Z,14.80
2017-06-15T00:23:22.098Z,14.80
2017-06-15T00:25:50.257Z,14.80
2017-06-15T00:28:18.386Z,14.70
2017-06-15T00:30:46.537Z,14.70
2017-06-15T00:33:14.626Z,14.70
2017-06-15T00:35:42.746Z,14.70
2017-06-15T00:38:10.845Z,14.60
2017-06-15T00:40:38.959Z,14.60
2017-06-15T00:43:07.086Z,14.60
2017-06-15T00:45:35.226Z,14.60
2017-06-15T00:48:03.322Z,14.50
2017-06-15T00:50:31.464Z,14.50
2017-06-15T00:52:59.615Z,14.50
2017-06-15T00:55:27.773Z,14.50
2017-06-15T00:57:55.897Z,14.50
2017-06-15T01:00:24.005Z,14.50
2017-06-15T01:02:52.140Z,14.50
2017-06-15T01:05:20.239Z,14.40
2017-06-15T01:07:48.360Z,14.40
2017-06-15T01:10:19.408Z,14.30
2017-06-15T01:12:47.543Z,14.30
2017-06-15T01:15:15.647Z,14.20
2017-06-15T01:17:43.763Z,14.10
2017-06-15T01:20:11.882Z,14.10
2017-06-15T01:22:40.012Z,14.10
2017-06-15T01:25:08.152Z,14.00
2017-06-15T01:27:36.282Z,14.00
2017-06-15T01:30:04.382Z,14.00
2017-06-15T01:32:32.509Z,14.10
2017-06-15T01:35:00.650Z,14.10
2017-06-15T01:37:28.776Z,14.10
2017-06-15T01:39:56.897Z,14.10
2017-06-15T01:42:25.021Z,14.10
2017-06-15T01:44:53.185Z,14.10
2017-06-15T01:47:21.295Z,14.00
2017-06-15T01:49:49.386Z,13.90
2017-06-15T01:52:17.511Z,13.90
2017-06-15T01:54:45.630Z,13.90
2017-06-15T01:57:13.783Z,13.90
2017-06-15T01:59:41.918Z,13.90
2017-06-15T02:02:10.065Z,13.90
2017-06-15T02:04:38.166Z,13.80
2017-06-15T02:07:06.266Z,13.80
2017-06-15T02:09:34.410Z,13.70
2017-06-15T02:12:02.506Z,13.70
2017-06-15T02:14:30.625Z,13.80
2017-06-15T02:16:58.731Z,13.80
2017-06-15T02:19:26.822Z,13.80
2017-06-15T02:21:54.935Z,13.80
2017-06-15T02:24:23.964Z,13.80
2017-06-15T02:26:52.075Z,13.80
2017-06-15T02:29:20.210Z,13.80
2017-06-15T02:31:49.307Z,13.80
2017-06-15T02:34:17.393Z,13.90
2017-06-15T02:36:45.528Z,13.90
2017-06-15T02:39:13.641Z,13.90
2017-06-15T02:41:41.776Z,13.90
2017-06-15T02:44:09.946Z,13.90
2017-06-15T02:46:38.078Z,13.90
2017-06-15T02:49:06.184Z,13.90
2017-06-15T02:51:34.307Z,13.90
2017-06-15T02:54:02.417Z,13.80
2017-06-15T02:56:30.557Z,13.80
2017-06-15T02:59:11.694Z,13.80
2017-06-15T03:01:39.798Z,13.90
2017-06-15T03:04:07.954Z,13.90
2017-06-15T03:06:36.051Z,13.90
2017-06-15T03:09:04.174Z,13.90
2017-06-15T03:11:32.335Z,13.90
2017-06-15T03:14:00.481Z,13.90
2017-06-15T03:16:29.545Z,14.00
2017-06-15T03:18:57.638Z,14.00
2017-06-15T03:21:25.750Z,14.10
2017-06-15T03:23:53.874Z,14.10
2017-06-15T03:26:21.975Z,14.20
2017-06-15T03:28:50.058Z,14.20
2017-06-15T03:31:18.189Z,14.60
2017-06-15T03:33:46.292Z,14.80
2017-06-15T03:36:14.418Z,15.20
2017-06-15T03:38:42.552Z,15.50
2017-06-15T03:41:10.720Z,15.80
2017-06-15T03:43:39.396Z,16.20
2017-06-15T03:46:07.499Z,16.60
2017-06-15T03:48:35.658Z,16.90
2017-06-15T03:51:03.767Z,17.10
2017-06-15T03:53:31.916Z,17.30
2017-06-15T03:56:00.062Z,17.30
2017-06-15T03:58:28.208Z,17.30
2017-06-15T04:00:56.384Z,17.40
2017-06-15T04:03:24.516Z,17.40
2017-06-15T04:05:52.637Z,17.40
2017-06-15T04:08:20.753Z,17.50
2017-06-15T04:10:48.868Z,17.70
2017-06-15T04:13:17.006Z,17.90
2017-06-15T04:15:45.166Z,17.90
2017-06-15T04:18:13.274Z,17.80
2017-06-15T04:20:41.398Z,17.80
2017-06-15T04:23:09.518Z,17.90
2017-06-15T04:25:38.672Z,18.30
2017-06-15T04:28:06.797Z,18.80
2017-06-15T04:30:34.923Z,19.00
2017-06-15T04:33:03.050Z,19.40
2017-06-15T04:35:31.201Z,20.10
2017-06-15T04:37:59.294Z,20.70
2017-06-15T04:40:31.518Z,21.30
2017-06-15T04:42:59.644Z,21.70
2017-06-15T04:45:27.775Z,22.10
2017-06-15T04:47:57.821Z,22.10
2017-06-15T04:50:25.966Z,22.40
2017-06-15T04:52:54.117Z,22.40
2017-06-15T04:55:23.196Z,22.50
2017-06-15T04:57:51.316Z,22.70
2017-06-15T05:00:19.426Z,23.10
2017-06-15T05:02:47.543Z,23.90
2017-06-15T05:05:15.673Z,24.00
2017-06-15T05:07:44.719Z,23.90
2017-06-15T05:10:13.178Z,24.00
2017-06-15T05:12:47.326Z,24.40
2017-06-15T05:15:16.743Z,24.50
2017-06-15T05:17:44.870Z,24.30
2017-06-15T05:20:13.006Z,23.30
2017-06-15T05:22:41.124Z,22.20
2017-06-15T05:25:09.242Z,21.20
2017-06-15T05:27:37.366Z,20.60
2017-06-15T05:30:05.464Z,20.20
2017-06-15T05:32:33.554Z,20.00
2017-06-15T05:35:01.653Z,19.80
2017-06-15T05:37:29.798Z,19.70
2017-06-15T05:39:57.999Z,19.50
2017-06-15T05:42:26.121Z,19.40
2017-06-15T05:44:54.249Z,19.30
2017-06-15T05:47:25.379Z,19.20
2017-06-15T05:49:53.519Z,19.00
2017-06-15T05:52:21.626Z,18.80
2017-06-15T05:54:49.748Z,18.60
2017-06-15T05:57:17.933Z,18.50
2017-06-15T05:59:46.041Z,18.40
2017-06-15T06:02:14.181Z,18.30
2017-06-15T06:04:42.335Z,18.20
2017-06-15T06:07:10.450Z,18.20
2017-06-15T06:09:38.589Z,18.20
2017-06-15T06:12:06.696Z,18.20
2017-06-15T06:14:34.781Z,18.20
2017-06-15T06:17:02.951Z,18.20
2017-06-15T06:19:31.087Z,18.20
2017-06-15T06:21:59.206Z,18.20
2017-06-15T06:24:27.376Z,18.20
2017-06-15T06:26:55.497Z,18.10
2017-06-15T06:29:25.772Z,18.10
2017-06-15T06:31:53.895Z,18.10
2017-06-15T06:34:22.041Z,18.10
2017-06-15T06:36:50.170Z,18.10
2017-06-15T06:39:18.314Z,18.10
2017-06-15T06:41:46.478Z,18.10
2017-06-15T06:44:14.633Z,18.20
2017-06-15T06:46:42.746Z,18.20
2017-06-15T06:49:10.894Z,18.20
2017-06-15T06:51:39.040Z,18.30
2017-06-15T06:54:07.134Z,18.40
2017-06-15T06:56:36.283Z,18.40
2017-06-15T06:59:04.393Z,18.50
2017-06-15T07:01:32.522Z,18.50
2017-06-15T07:04:02.670Z,18.60
2017-06-15T07:06:30.803Z,18.70
2017-06-15T07:08:58.991Z,18.70
2017-06-15T07:11:27.081Z,18.80
2017-06-15T07:13:55.183Z,19.00
2017-06-15T07:16:23.302Z,19.10
2017-06-15T07:18:56.165Z,19.10
2017-06-15T07:21:24.285Z,19.30
2017-06-15T07:23:52.385Z,19.30
2017-06-15T07:26:20.483Z,19.50
2017-06-15T07:28:48.646Z,19.60
2017-06-15T07:31:16.750Z,19.70
2017-06-15T07:33:44.918Z,19.90
2017-06-15T07:36:19.179Z,20.00
2017-06-15T07:38:47.368Z,20.10
2017-06-15T07:41:15.487Z,20.30
2017-06-15T07:43:47.380Z,20.40
2017-06-15T07:46:15.533Z,20.50
2017-06-15T07:48:49.597Z,20.70
2017-06-15T07:51:17.749Z,20.80
2017-06-15T07:53:45.982Z,21.00
2017-06-15T07:56:14.146Z,21.10
2017-06-15T07:58:42.293Z,21.10
2017-06-15T08:01:10.419Z,21.30
2017-06-15T08:03:38.570Z,21.30
2017-06-15T08:06:06.694Z,21.40
2017-06-15T08:08:34.834Z,21.50
2017-06-15T08:11:03.080Z,21.70
2017-06-15T08:13:31.191Z,21.80
2017-06-15T08:15:59.357Z,21.90
2017-06-15T08:18:27.497Z,22.10
2017-06-15T08:20:55.599Z,22.20
2017-06-15T08:23:23.732Z,22.30
2017-06-15T08:25:51.854Z,22.40
2017-06-15T08:28:20.049Z,22.50
2017-06-15T08:30:48.170Z,22.50
2017-06-15T08:33:16.259Z,22.50
2017-06-15T08:35:51.680Z,22.60
2017-06-15T08:38:19.795Z,22.60
2017-06-15T08:40:48.813Z,22.60
2017-06-15T08:43:16.939Z,22.60
2017-06-15T08:45:45.215Z,22.50
2017-06-15T08:48:13.329Z,22.50
2017-06-15T08:50:41.447Z,22.60
2017-06-15T08:53:09.722Z,22.60
2017-06-15T08:55:37.878Z,22.60
2017-06-15T08:58:06.006Z,22.60
2017-06-15T09:00:34.173Z,22.60
2017-06-15T09:03:02.323Z,22.70
2017-06-15T09:05:32.537Z,22.90
2017-06-15T09:08:00.662Z,23.00
2017-06-15T09:10:28.798Z,23.20
2017-06-15T09:12:56.940Z,23.30
2017-06-15T09:15:25.062Z,23.60
2017-06-15T09:17:54.164Z,23.70
2017-06-15T09:20:22.296Z,23.80
2017-06-15T09:22:50.407Z,24.00
2017-06-15T09:25:18.539Z,24.10
2017-06-15T09:27:46.788Z,24.20
2017-06-15T09:30:16.827Z,24.40
2017-06-15T09:32:44.961Z,24.50
2017-06-15T09:35:13.110Z,24.60
2017-06-15T09:37:41.211Z,24.80
2017-06-15T09:40:09.402Z,24.90
2017-06-15T09:42:37.531Z,24.80
2017-06-15T09:45:05.703Z,24.80
2017-06-15T09:47:33.902Z,24.90
2017-06-15T09:50:02.905Z,24.90
2017-06-15T09:52:31.731Z,25.00
2017-06-15T09:54:59.843Z,24.90
2017-06-15T09:57:29.959Z,24.90
2017-06-15T09:59:58.117Z,24.80
2017-06-15T10:02:26.287Z,24.70
2017-06-15T10:04:54.669Z,24.70
2017-06-15T10:07:22.817Z,24.60
2017-06-15T10:09:50.983Z,24.60
2017-06-15T10:12:29.012Z,24.60
2017-06-15T10:14:57.142Z,24.60
2017-06-15T10:17:25.255Z,24.70
2017-06-15T10:19:53.364Z,24.70
2017-06-15T10:22:21.543Z,24.60
2017-06-15T10:24:49.642Z,24.60
2017-06-15T10:27:17.772Z,24.60
2017-06-15T10:29:45.932Z,24.60
2017-06-15T10:32:14.079Z,24.60
2017-06-15T10:34:42.198Z,24.70
2017-06-15T10:37:10.315Z,24.70
2017-06-15T10:39:38.451Z,24.80
2017-06-15T10:42:10.571Z,24.80
2017-06-15T10:44:38.674Z,24.90
2017-06-15T10:47:06.818Z,25.00
2017-06-15T10:49:35.002Z,25.10
2017-06-15T10:52:03.130Z,25.10
2017-06-15T10:54:31.270Z,25.10
2017-06-15T10:56:59.397Z,25.20
2017-06-15T10:59:27.607Z,25.20
2017-06-15T11:01:55.755Z,25.20
2017-06-15T11:04:23.966Z,25.20
2017-06-15T11:06:52.732Z,25.20
2017-06-15T11:09:22.037Z,25.10
2017-06-15T11:11:50.209Z,25.10
2017-06-15T11:14:18.361Z,25.10
2017-06-15T11:16:46.543Z,25.10
2017-06-15T11:19:18.202Z,25.10
2017-06-15T11:21:48.483Z,25.10
2017-06-15T11:24:16.602Z,25.00
2017-06-15T11:26:44.702Z,24.90
2017-06-15T11:29:12.822Z,24.90
2017-06-15T11:31:41.015Z,24.90
2017-06-15T11:34:09.337Z,24.90
2017-06-15T11:36:37.492Z,24.90
2017-06-15T11:39:05.658Z,24.80
2017-06-15T11:41:33.762Z,24.80
2017-06-15T11:44:01.897Z,24.80
2017-06-15T11:46:30.097Z,24.80
2017-06-15T11:49:00.226Z,24.80
2017-06-15T11:51:28.333Z,24.90
2017-06-15T11:53:56.492Z,24.90
2017-06-15T11:56:24.624Z,24.90
2017-06-15T11:58:52.759Z,25.00
2017-06-15T12:01:20.896Z,25.10
2017-06-15T12:03:49.520Z,25.20
2017-06-15T12:06:17.621Z,25.20
2017-06-15T12:08:45.743Z,25.30
2017-06-15T12:11:13.866Z,25.40
2017-06-15T12:13:41.991Z,25.40
2017-06-15T12:16:10.119Z,25.50
2017-06-15T12:18:38.217Z,25.50
2017-06-15T12:21:06.391Z,25.60
2017-06-15T12:23:34.530Z,25.70
2017-06-15T12:26:04.738Z,25.70
2017-06-15T12:28:32.841Z,25.80
2017-06-15T12:31:00.952Z,26.10
2017-06-15T12:33:29.075Z,26.30
2017-06-15T12:35:57.185Z,26.40
2017-06-15T12:38:25.318Z,26.60
2017-06-15T12:40:53.424Z,26.60
2017-06-15T12:43:21.548Z,26.70
2017-06-15T12:45:51.999Z,26.80
2017-06-15T12:48:20.128Z,27.10
2017-06-15T12:50:48.272Z,27.40
2017-06-15T12:53:16.413Z,27.70
2017-06-15T12:55:44.564Z,27.70
2017-06-15T12:58:12.692Z,27.90
2017-06-15T13:00:40.813Z,28.10
2017-06-15T13:03:09.900Z,28.20
2017-06-15T13:05:38.068Z,28.20
2017-06-15T13:08:06.194Z,28.20
2017-06-15T13:10:34.347Z,28.20
2017-06-15T13:13:02.487Z,28.30
2017-06-15T13:15:30.638Z,28.40
2017-06-15T13:17:58.806Z,28.40
2017-06-15T13:20:26.971Z,28.60
2017-06-15T13:22:55.155Z,28.50
2017-06-15T13:25:23.259Z,28.40
2017-06-15T13:27:51.388Z,28.20
2017-06-15T13:30:19.529Z,28.00
2017-06-15T13:32:47.663Z,27.80
2017-06-15T13:35:15.845Z,27.60
2017-06-15T13:37:43.968Z,27.50
2017-06-15T13:40:14.160Z,27.30
2017-06-15T13:42:42.270Z,27.30
2017-06-15T13:45:10.370Z,27.20
2017-06-15T13:47:38.529Z,27.30
2017-06-15T13:50:17.109Z,27.40
2017-06-15T13:52:45.244Z,27.50
2017-06-15T13:55:13.389Z,27.60
2017-06-15T13:57:41.494Z,27.70
2017-06-15T14:00:09.643Z,27.90
2017-06-15T14:02:37.779Z,28.10
2017-06-15T14:05:05.910Z,28.20
2017-06-15T14:07:34.039Z,28.30
2017-06-15T14:10:02.223Z,28.50
2017-06-15T14:12:30.338Z,28.50
2017-06-15T14:14:58.439Z,28.60
2017-06-15T14:17:26.576Z,28.80
2017-06-15T14:19:54.695Z,29.10
2017-06-15T14:22:22.830Z,29.10
2017-06-15T14:24:50.995Z,29.20
2017-06-15T14:27:19.120Z,29.30
2017-06-15T14:29:47.248Z,29.30
2017-06-15T14:32:15.381Z,29.30
2017-06-15T14:34:43.563Z,29.30
2017-06-15T14:37:11.717Z,29.40
2017-06-15T14:39:39.874Z,29.50
2017-06-15T14:42:08.014Z,29.60
2017-06-15T14:44:36.168Z,29.60
2017-06-15T14:47:04.300Z,29.60
2017-06-15T14:49:32.460Z,29.50
2017-06-15T14:52:00.675Z,29.40
2017-06-15T14:54:28.841Z,29.30
2017-06-15T14:56:57.051Z,29.30
2017-06-15T14:59:29.274Z,29.20
2017-06-15T15:01:57.458Z,29.10
2017-06-15T15:04:25.911Z,28.80
2017-06-15T15:06:54.050Z,28.60
2017-06-15T15:09:30.764Z,28.50
2017-06-15T15:11:58.891Z,28.50
2017-06-15T15:14:28.980Z,28.50
2017-06-15T15:17:01.845Z,28.60
2017-06-15T15:19:31.356Z,28.60
2017-06-15T15:21:59.489Z,28.60
2017-06-15T15:24:27.752Z,28.50
2017-06-15T15:26:55.879Z,28.50
2017-06-15T15:29:24.022Z,28.50
2017-06-15T15:31:53.131Z,28.30
2017-06-15T15:34:22.222Z,28.10
2017-06-15T15:36:50.336Z,28.00
2017-06-15T15:39:18.515Z,27.90
2017-06-15T15:41:48.424Z,27.80
2017-06-15T15:44:17.460Z,27.80
2017-06-15T15:46:45.647Z,27.80
2017-06-15T15:49:13.787Z,27.80
2017-06-15T15:51:41.946Z,27.80
2017-06-15T15:54:10.146Z,27.80
2017-06-15T15:56:38.274Z,27.80
2017-06-15T15:59:06.402Z,27.70
2017-06-15T16:01:34.538Z,27.70
2017-06-15T16:04:02.684Z,27.70
2017-06-15T16:06:30.817Z,27.70
2017-06-15T16:08:59.021Z,27.60
2017-06-15T16:11:27.159Z,27.50
2017-06-15T16:13:55.304Z,27.40
2017-06-15T16:16:23.412Z,27.30
2017-06-15T16:18:51.531Z,27.10
2017-06-15T16:21:19.689Z,27.00
2017-06-15T16:23:47.786Z,26.80
2017-06-15T16:26:15.903Z,26.60
2017-06-15T16:28:45.083Z,26.40
2017-06-15T16:31:13.223Z,26.30
2017-06-15T16:33:41.328Z,26.10
2017-06-15T16:36:09.552Z,26.00
2017-06-15T16:38:37.690Z,25.90
2017-06-15T16:41:05.844Z,25.80
2017-06-15T16:43:33.965Z,25.70
2017-06-15T16:46:02.162Z,25.70
2017-06-15T16:48:30.374Z,25.60
2017-06-15T16:50:59.055Z,25.50
2017-06-15T16:53:29.194Z,25.40
2017-06-15T16:55:57.301Z,25.30
2017-06-15T16:58:25.438Z,25.20
2017-06-15T17:00:55.510Z,25.10
2017-06-15T17:03:23.741Z,25.10
2017-06-15T17:05:55.678Z,25.00
2017-06-15T17:08:23.845Z,25.00
2017-06-15T17:10:53.043Z,24.80
2017-06-15T17:13:21.135Z,24.50
2017-06-15T17:15:49.265Z,24.00
2017-06-15T17:18:18.313Z,23.70
2017-06-15T17:20:46.449Z,23.50
2017-06-15T17:23:14.652Z,23.20
2017-06-15T17:25:43.156Z,23.10
2017-06-15T17:28:23.816Z,23.00
2017-06-15T17:30:51.947Z,22.90
2017-06-15T17:33:20.051Z,22.90
2017-06-15T17:35:48.180Z,22.80
2017-06-15T17:38:16.719Z,22.70
2017-06-15T17:40:54.870Z,22.60
2017-06-15T17:43:23.953Z,22.50
2017-06-15T17:45:54.058Z,22.50
2017-06-15T17:48:22.203Z,22.40
2017-06-15T17:50:50.458Z,22.30
2017-06-15T17:53:18.567Z,22.20
2017-06-15T17:55:46.703Z,22.10
2017-06-15T17:58:15.695Z,22.10
2017-06-15T18:00:43.808Z,22.00
2017-06-15T18:03:11.964Z,21.90
2017-06-15T18:05:40.173Z,21.90
2017-06-15T18:08:10.281Z,21.80
2017-06-15T18:10:42.946Z,21.80
2017-06-15T18:13:11.130Z,21.80
2017-06-15T18:15:39.303Z,21.70
2017-06-15T18:18:07.508Z,21.70
2017-06-15T18:20:37.581Z,21.60
2017-06-15T18:23:06.995Z,21.60
2017-06-15T18:25:35.282Z,21.60
2017-06-15T18:28:03.428Z,21.50
2017-06-15T18:30:31.620Z,21.50
2017-06-15T18:32:59.958Z,21.40
2017-06-15T18:35:28.073Z,21.40
2017-06-15T18:37:57.846Z,21.40
2017-06-15T18:40:25.962Z,21.30
2017-06-15T18:42:54.088Z,21.30
2017-06-15T18:45:22.233Z,21.30
2017-06-15T18:47:50.362Z,21.20
2017-06-15T18:50:18.532Z,21.20
2017-06-15T18:52:46.656Z,21.20
2017-06-15T18:55:14.761Z,21.20
2017-06-15T18:57:42.903Z,21.20
2017-06-15T19:00:11.056Z,21.10
2017-06-15T19:02:39.250Z,20.80
2017-06-15T19:05:07.389Z,20.50
2017-06-15T19:07:35.535Z,20.40
2017-06-15T19:10:03.680Z,20.40
2017-06-15T19:12:31.829Z,20.40
2017-06-15T19:14:59.960Z,20.40
2017-06-15T19:17:29.084Z,20.30
2017-06-15T19:19:57.230Z,20.30
2017-06-15T19:22:25.347Z,20.20
2017-06-15T19:24:53.473Z,20.20
2017-06-15T19:27:21.602Z,20.20
2017-06-15T19:29:52.030Z,20.20
2017-06-15T19:32:20.151Z,20.20
2017-06-15T19:34:52.648Z,20.20
2017-06-15T19:37:20.765Z,20.20
2017-06-15T19:39:48.877Z,20.30
2017-06-15T19:42:17.967Z,20.20
2017-06-15T19:44:46.084Z,20.30
2017-06-15T19:47:14.270Z,20.30
2017-06-15T19:49:42.420Z,20.20
2017-06-15T19:52:10.499Z,20.20
2017-06-15T19:54:38.656Z,20.20
2017-06-15T19:57:07.680Z,20.20
2017-06-15T19:59:36.634Z,20.20
2017-06-15T20:02:04.775Z,20.20
2017-06-15T20:04:34.151Z,20.10
2017-06-15T20:07:02.397Z,20.10
2017-06-15T20:09:30.585Z,20.20
2017-06-15T20:11:58.725Z,20.10
2017-06-15T20:14:26.910Z,20.00
2017-06-15T20:16:55.033Z,20.00
2017-06-15T20:19:23.121Z,20.00
2017-06-15T20:21:53.159Z,20.10
2017-06-15T20:24:21.320Z,19.90
2017-06-15T20:26:49.468Z,19.70
2017-06-15T20:29:17.598Z,19.30
2017-06-15T20:31:46.123Z,18.80
2017-06-15T20:34:14.203Z,18.60
2017-06-15T20:36:42.334Z,18.50
2017-06-15T20:39:10.425Z,18.40
2017-06-15T20:41:38.570Z,18.30
2017-06-15T20:44:06.702Z,18.20
2017-06-15T20:46:34.838Z,18.10
2017-06-15T20:49:03.452Z,17.80
2017-06-15T20:51:31.614Z,17.80
2017-06-15T20:53:59.743Z,17.80
2017-06-15T20:56:27.871Z,17.80
2017-06-15T20:58:55.971Z,17.80
2017-06-15T21:01:24.127Z,18.00
2017-06-15T21:03:52.260Z,18.00
2017-06-15T21:06:20.407Z,18.10
2017-06-15T21:08:53.360Z,18.10
2017-06-15T21:11:21.501Z,18.20
2017-06-15T21:13:49.674Z,18.20
2017-06-15T21:16:17.798Z,18.20
2017-06-15T21:18:45.912Z,18.30
2017-06-15T21:21:14.024Z,18.30
2017-06-15T21:23:42.143Z,18.30
2017-06-15T21:26:10.270Z,18.30
2017-06-15T21:28:38.416Z,18.20
2017-06-15T21:31:06.728Z,18.10
2017-06-15T21:33:34.875Z,18.10
2017-06-15T21:36:03.017Z,18.10
2017-06-15T21:38:31.124Z,18.10
2017-06-15T21:40:59.247Z,18.10
2017-06-15T21:43:27.386Z,18.10
2017-06-15T21:45:55.500Z,18.10
2017-06-15T21:48:23.707Z,18.00
2017-06-15T21:53:41.835Z,18.00
2017-06-15T21:56:19.390Z,17.90
2017-06-15T21:58:48.194Z,17.80
2017-06-15T22:01:18.236Z,17.80
2017-06-15T22:03:46.330Z,17.80
2017-06-15T22:06:14.483Z,17.70
2017-06-15T22:08:42.588Z,17.70
2017-06-15T22:11:10.699Z,17.60
2017-06-15T22:13:38.821Z,17.60
2017-06-15T22:16:07.782Z,17.50
2017-06-15T22:18:35.913Z,17.50
2017-06-15T22:21:04.022Z,17.50
2017-06-15T22:23:32.157Z,17.50
2017-06-15T22:26:00.250Z,17.50
2017-06-15T22:31:36.212Z,17.50
2017-06-15T22:34:04.323Z,17.40
2017-06-15T22:36:42.665Z,17.40
2017-06-15T22:39:10.782Z,17.40
2017-06-15T22:41:41.186Z,17.40
2017-06-15T22:44:19.839Z,17.40
2017-06-15T22:52:39.687Z,17.20
2017-06-15T22:55:07.810Z,17.20
2017-06-15T22:57:35.933Z,17.20
2017-06-15T23:00:04.050Z,17.20
2017-06-15T23:02:43.720Z,17.10
2017-06-15T23:05:11.848Z,17.20
2017-06-15T23:07:39.966Z,17.10
2017-06-15T23:10:10.038Z,17.20
2017-06-15T23:12:38.154Z,17.10
2017-06-15T23:15:06.269Z,17.10
2017-06-15T23:17:34.366Z,17.00
2017-06-15T23:20:02.490Z,16.90
2017-06-15T23:22:30.607Z,16.90
2017-06-15T23:24:58.777Z,16.90
2017-06-15T23:27:26.895Z,16.80
2017-06-15T23:29:54.981Z,16.80
2017-06-15T23:32:23.086Z,16.70
2017-06-15T23:34:51.225Z,16.70
2017-06-15T23:37:19.311Z,16.70
2017-06-15T23:39:47.438Z,16.70
2017-06-15T23:42:15.619Z,16.60
2017-06-15T23:44:43.775Z,16.60
2017-06-15T23:47:11.882Z,16.60
2017-06-15T23:49:39.997Z,16.50
2017-06-15T23:52:08.990Z,16.50
2017-06-15T23:54:37.089Z,16.40
2017-06-15T23:57:05.211Z,16.40
2017-06-15T23:59:33.336Z,16.30
